Etusivu
METAR-TAF:

METAR-TAF

Lentoasemat :

Boscobel Airport

Boscobel, Wisconsin, Yhdysvallat

Leveyspiiri: 43-09-22N, Pituuspiiri: 090-40-39W, korkeus merenpinnasta: 205 m

Tämänhetkinen sää

Tämä raportti tehtiin 9 minuuttia sitten, kello 21.42 UTC
tyyntä
Lämpötila 21°C
Kosteus 88%
Ilmanpaine 1010 hPa
Näkyvyys: 3.2 km
Hajanaisia pilviä 4600 ft:n korkeudessa
Pilvistä 8000 ft:n korkeudessa
ukkosta näköpiirissä, sadetta, utua

METAR: KOVS 092142Z AUTO 00000KT 2SM VCTS RA BR SCT046 OVC080 21/19 A2983 RMK AO2 LTG DSNT ALQDS TSE02B03E18 P0027 T02110194

Aika: 16:51 (21:51 UTC)


TAF: puuttuu

Säähavainnot ja -ennusteet yli 4000 lentoasemalta (METAR- ja TAF-raportit).

Käytössä olevat sääasemat on merkitty karttaan keltaisilla ja punaisilla pisteillä.

Aseta hiiri pisteen päälle nähdäksesi sääaseman nimen.

Klikkaa sitten nähdäksesi säähavainnot ja -ennusteet.

Kartan vaihtaminen: klikkaa mustalla rastilla varustettuja vihreitä pisteitä, niin voit zoomata sisään; viivalla varustettua vihreää pistettä, niin voit zoomata ulos tai vihreitä nuolia, niin pääset viereisille kartoille.


METAR-TAF: